<?xml version="1.0" encoding="UTF-8" standalone="no" ?>
<gpx xmlns="http://www.topografix.com/GPX/1/1" xmlns:xsi="http://www.w3.org/2001/XMLSchema-instance" xsi:schemaLocation="http://www.topografix.com/GPX/1/1 http://www.topografix.com/GPX/1/1/gpx.xsd" version="1.1" creator="VisuGPX - https://www.visugpx.com">
  <metadata>
    <name>Mont Aurélien</name>
    <desc><![CDATA[Parcours facile,sauf la dernière portion,pour atteindre
Olympe à 870 mètre d\'altitude. ]]></desc>
  </metadata>
  <trk>
    <name><![CDATA[Mont Aurélien_1]]></name>
    <trkseg>
      <trkpt lat="43.46569" lon="5.74623">
        <ele>310.5</ele>
        <time>2015-04-15T07:08:53Z</time>
      </trkpt>
      <trkpt lat="43.46567" lon="5.74624">
        <ele>310.799987</ele>
        <time>2015-04-15T07:08:54Z</time>
      </trkpt>
      <trkpt lat="43.46534" lon="5.74635">
        <ele>314.5</ele>
        <time>2015-04-15T07:09:25Z</time>
      </trkpt>
      <trkpt lat="43.46517" lon="5.74639">
        <ele>314.8</ele>
        <time>2015-04-15T07:09:39Z</time>
      </trkpt>
      <trkpt lat="43.465" lon="5.74646">
        <ele>313.3</ele>
        <time>2015-04-15T07:09:59Z</time>
      </trkpt>
      <trkpt lat="43.46499" lon="5.74646">
        <ele>313.5</ele>
        <time>2015-04-15T07:10:00Z</time>
      </trkpt>
      <trkpt lat="43.46468" lon="5.74663">
        <ele>315.5</ele>
        <time>2015-04-15T07:10:35Z</time>
      </trkpt>
      <trkpt lat="43.4645" lon="5.74666">
        <ele>317.5</ele>
        <time>2015-04-15T07:10:51Z</time>
      </trkpt>
      <trkpt lat="43.46434" lon="5.74674">
        <ele>320.6</ele>
        <time>2015-04-15T07:11:05Z</time>
      </trkpt>
      <trkpt lat="43.46433" lon="5.74675">
        <ele>320.7</ele>
        <time>2015-04-15T07:11:06Z</time>
      </trkpt>
      <trkpt lat="43.46402" lon="5.74694">
        <ele>321.2</ele>
        <time>2015-04-15T07:11:36Z</time>
      </trkpt>
      <trkpt lat="43.46386" lon="5.747">
        <ele>322.7</ele>
        <time>2015-04-15T07:11:52Z</time>
      </trkpt>
      <trkpt lat="43.46369" lon="5.74708">
        <ele>323.2</ele>
        <time>2015-04-15T07:12:08Z</time>
      </trkpt>
      <trkpt lat="43.46368" lon="5.74709">
        <ele>323.3</ele>
        <time>2015-04-15T07:12:09Z</time>
      </trkpt>
      <trkpt lat="43.46335" lon="5.74714">
        <ele>326.7</ele>
        <time>2015-04-15T07:12:38Z</time>
      </trkpt>
      <trkpt lat="43.46318" lon="5.74718">
        <ele>329.2</ele>
        <time>2015-04-15T07:12:53Z</time>
      </trkpt>
      <trkpt lat="43.46301" lon="5.74726">
        <ele>330.6</ele>
        <time>2015-04-15T07:13:09Z</time>
      </trkpt>
      <trkpt lat="43.463" lon="5.74726">
        <ele>330.7</ele>
        <time>2015-04-15T07:13:10Z</time>
      </trkpt>
      <trkpt lat="43.46266" lon="5.7474">
        <ele>332.5</ele>
        <time>2015-04-15T07:13:42Z</time>
      </trkpt>
      <trkpt lat="43.4625" lon="5.74747">
        <ele>336.1</ele>
        <time>2015-04-15T07:13:57Z</time>
      </trkpt>
      <trkpt lat="43.46232" lon="5.74754">
        <ele>338.2</ele>
        <time>2015-04-15T07:14:13Z</time>
      </trkpt>
      <trkpt lat="43.46231" lon="5.74755">
        <ele>338.2</ele>
        <time>2015-04-15T07:14:14Z</time>
      </trkpt>
      <trkpt lat="43.462" lon="5.74771">
        <ele>338.7</ele>
        <time>2015-04-15T07:14:45Z</time>
      </trkpt>
      <trkpt lat="43.46186" lon="5.74784">
        <ele>340</ele>
        <time>2015-04-15T07:15:00Z</time>
      </trkpt>
      <trkpt lat="43.46168" lon="5.74788">
        <ele>342.2</ele>
        <time>2015-04-15T07:15:18Z</time>
      </trkpt>
      <trkpt lat="43.46167" lon="5.74789">
        <ele>342.5</ele>
        <time>2015-04-15T07:15:19Z</time>
      </trkpt>
      <trkpt lat="43.46133" lon="5.74799">
        <ele>333.2</ele>
        <time>2015-04-15T07:16:36Z</time>
      </trkpt>
      <trkpt lat="43.46133" lon="5.748">
        <ele>333.1</ele>
        <time>2015-04-15T07:16:37Z</time>
      </trkpt>
      <trkpt lat="43.46131" lon="5.74847">
        <ele>334.5</ele>
        <time>2015-04-15T07:17:08Z</time>
      </trkpt>
      <trkpt lat="43.46132" lon="5.74871">
        <ele>331.7</ele>
        <time>2015-04-15T07:17:27Z</time>
      </trkpt>
      <trkpt lat="43.46133" lon="5.74895">
        <ele>332.2</ele>
        <time>2015-04-15T07:17:43Z</time>
      </trkpt>
      <trkpt lat="43.46133" lon="5.74896">
        <ele>332.2</ele>
        <time>2015-04-15T07:17:44Z</time>
      </trkpt>
      <trkpt lat="43.46127" lon="5.74941">
        <ele>333.3</ele>
        <time>2015-04-15T07:18:13Z</time>
      </trkpt>
      <trkpt lat="43.46118" lon="5.74961">
        <ele>337.2</ele>
        <time>2015-04-15T07:18:28Z</time>
      </trkpt>
      <trkpt lat="43.46108" lon="5.74981">
        <ele>339.7</ele>
        <time>2015-04-15T07:18:45Z</time>
      </trkpt>
      <trkpt lat="43.46107" lon="5.74982">
        <ele>339.7</ele>
        <time>2015-04-15T07:18:46Z</time>
      </trkpt>
      <trkpt lat="43.46084" lon="5.75016">
        <ele>343.5</ele>
        <time>2015-04-15T07:19:23Z</time>
      </trkpt>
      <trkpt lat="43.46073" lon="5.75034">
        <ele>346.8</ele>
        <time>2015-04-15T07:20:27Z</time>
      </trkpt>
      <trkpt lat="43.46072" lon="5.75034">
        <ele>346.7</ele>
        <time>2015-04-15T07:20:28Z</time>
      </trkpt>
      <trkpt lat="43.46058" lon="5.75049">
        <ele>352.2</ele>
        <time>2015-04-15T07:22:00Z</time>
      </trkpt>
      <trkpt lat="43.46041" lon="5.75058">
        <ele>353.2</ele>
        <time>2015-04-15T07:24:06Z</time>
      </trkpt>
      <trkpt lat="43.46013" lon="5.75037">
        <ele>359.2</ele>
        <time>2015-04-15T07:24:41Z</time>
      </trkpt>
      <trkpt lat="43.46002" lon="5.75017">
        <ele>359.3</ele>
        <time>2015-04-15T07:24:57Z</time>
      </trkpt>
      <trkpt lat="43.45991" lon="5.74998">
        <ele>357.3</ele>
        <time>2015-04-15T07:25:15Z</time>
      </trkpt>
      <trkpt lat="43.4599" lon="5.74997">
        <ele>357.6</ele>
        <time>2015-04-15T07:25:16Z</time>
      </trkpt>
      <trkpt lat="43.45957" lon="5.75001">
        <ele>357.1</ele>
        <time>2015-04-15T07:25:54Z</time>
      </trkpt>
      <trkpt lat="43.45941" lon="5.75012">
        <ele>358</ele>
        <time>2015-04-15T07:26:14Z</time>
      </trkpt>
      <trkpt lat="43.45926" lon="5.75025">
        <ele>360</ele>
        <time>2015-04-15T07:26:30Z</time>
      </trkpt>
      <trkpt lat="43.45925" lon="5.75025">
        <ele>360.1</ele>
        <time>2015-04-15T07:26:31Z</time>
      </trkpt>
      <trkpt lat="43.45897" lon="5.7505">
        <ele>364.7</ele>
        <time>2015-04-15T07:27:01Z</time>
      </trkpt>
      <trkpt lat="43.45881" lon="5.75058">
        <ele>366.7</ele>
        <time>2015-04-15T07:27:17Z</time>
      </trkpt>
      <trkpt lat="43.45863" lon="5.75062">
        <ele>367.5</ele>
        <time>2015-04-15T07:27:35Z</time>
      </trkpt>
      <trkpt lat="43.45862" lon="5.75062">
        <ele>367.7</ele>
        <time>2015-04-15T07:27:36Z</time>
      </trkpt>
      <trkpt lat="43.45836" lon="5.75089">
        <ele>365.8</ele>
        <time>2015-04-15T07:28:14Z</time>
      </trkpt>
      <trkpt lat="43.45824" lon="5.75106">
        <ele>367.3</ele>
        <time>2015-04-15T07:28:28Z</time>
      </trkpt>
      <trkpt lat="43.45811" lon="5.75121">
        <ele>369.8</ele>
        <time>2015-04-15T07:28:39Z</time>
      </trkpt>
      <trkpt lat="43.45809" lon="5.75123">
        <ele>370.3</ele>
        <time>2015-04-15T07:28:40Z</time>
      </trkpt>
      <trkpt lat="43.45781" lon="5.75145">
        <ele>376.8</ele>
        <time>2015-04-15T07:29:07Z</time>
      </trkpt>
      <trkpt lat="43.45764" lon="5.75152">
        <ele>369.5</ele>
        <time>2015-04-15T07:29:28Z</time>
      </trkpt>
      <trkpt lat="43.45749" lon="5.75164">
        <ele>364.5</ele>
        <time>2015-04-15T07:29:47Z</time>
      </trkpt>
      <trkpt lat="43.45748" lon="5.75165">
        <ele>364.7</ele>
        <time>2015-04-15T07:29:48Z</time>
      </trkpt>
      <trkpt lat="43.45736" lon="5.75208">
        <ele>375.3</ele>
        <time>2015-04-15T07:30:13Z</time>
      </trkpt>
      <trkpt lat="43.45734" lon="5.75232">
        <ele>377.2</ele>
        <time>2015-04-15T07:30:27Z</time>
      </trkpt>
      <trkpt lat="43.45731" lon="5.75256">
        <ele>381.8</ele>
        <time>2015-04-15T07:30:42Z</time>
      </trkpt>
      <trkpt lat="43.45726" lon="5.7528">
        <ele>385.2</ele>
        <time>2015-04-15T07:31:02Z</time>
      </trkpt>
      <trkpt lat="43.45726" lon="5.75282">
        <ele>385.3</ele>
        <time>2015-04-15T07:31:03Z</time>
      </trkpt>
      <trkpt lat="43.45706" lon="5.75319">
        <ele>387.5</ele>
        <time>2015-04-15T07:31:33Z</time>
      </trkpt>
      <trkpt lat="43.45689" lon="5.7532">
        <ele>384.3</ele>
        <time>2015-04-15T07:31:50Z</time>
      </trkpt>
      <trkpt lat="43.45679" lon="5.75302">
        <ele>385</ele>
        <time>2015-04-15T07:32:06Z</time>
      </trkpt>
      <trkpt lat="43.45678" lon="5.753">
        <ele>384.5</ele>
        <time>2015-04-15T07:32:07Z</time>
      </trkpt>
      <trkpt lat="43.45677" lon="5.75254">
        <ele>375.6</ele>
        <time>2015-04-15T07:32:43Z</time>
      </trkpt>
      <trkpt lat="43.45681" lon="5.75231">
        <ele>374.1</ele>
        <time>2015-04-15T07:32:58Z</time>
      </trkpt>
      <trkpt lat="43.45684" lon="5.75208">
        <ele>375.6</ele>
        <time>2015-04-15T07:33:13Z</time>
      </trkpt>
      <trkpt lat="43.45685" lon="5.75206">
        <ele>375.2</ele>
        <time>2015-04-15T07:33:14Z</time>
      </trkpt>
      <trkpt lat="43.45694" lon="5.75161">
        <ele>365.3</ele>
        <time>2015-04-15T07:33:46Z</time>
      </trkpt>
      <trkpt lat="43.45691" lon="5.75138">
        <ele>358.8</ele>
        <time>2015-04-15T07:34:02Z</time>
      </trkpt>
      <trkpt lat="43.45694" lon="5.75114">
        <ele>358.7</ele>
        <time>2015-04-15T07:34:20Z</time>
      </trkpt>
      <trkpt lat="43.45694" lon="5.75113">
        <ele>358.7</ele>
        <time>2015-04-15T07:34:21Z</time>
      </trkpt>
      <trkpt lat="43.45689" lon="5.75068">
        <ele>355.8</ele>
        <time>2015-04-15T07:34:49Z</time>
      </trkpt>
      <trkpt lat="43.45683" lon="5.75046">
        <ele>364.3</ele>
        <time>2015-04-15T07:35:01Z</time>
      </trkpt>
      <trkpt lat="43.45677" lon="5.75024">
        <ele>372.8</ele>
        <time>2015-04-15T07:35:12Z</time>
      </trkpt>
      <trkpt lat="43.45668" lon="5.75006">
        <ele>364.7</ele>
        <time>2015-04-15T07:35:29Z</time>
      </trkpt>
      <trkpt lat="43.45667" lon="5.75002">
        <ele>366.6</ele>
        <time>2015-04-15T07:35:30Z</time>
      </trkpt>
      <trkpt lat="43.45641" lon="5.74976">
        <ele>361.3</ele>
        <time>2015-04-15T07:35:59Z</time>
      </trkpt>
      <trkpt lat="43.45626" lon="5.74964">
        <ele>359.7</ele>
        <time>2015-04-15T07:36:14Z</time>
      </trkpt>
      <trkpt lat="43.45611" lon="5.74953">
        <ele>357.7</ele>
        <time>2015-04-15T07:36:30Z</time>
      </trkpt>
      <trkpt lat="43.4561" lon="5.74953">
        <ele>357.5</ele>
        <time>2015-04-15T07:36:31Z</time>
      </trkpt>
      <trkpt lat="43.45581" lon="5.74927">
        <ele>348.2</ele>
        <time>2015-04-15T07:37:04Z</time>
      </trkpt>
      <trkpt lat="43.4557" lon="5.74909">
        <ele>347.2</ele>
        <time>2015-04-15T07:37:20Z</time>
      </trkpt>
      <trkpt lat="43.4556" lon="5.74888">
        <ele>348.2</ele>
        <time>2015-04-15T07:37:33Z</time>
      </trkpt>
      <trkpt lat="43.45559" lon="5.74886">
        <ele>348.7</ele>
        <time>2015-04-15T07:37:34Z</time>
      </trkpt>
      <trkpt lat="43.4554" lon="5.74849">
        <ele>347.8</ele>
        <time>2015-04-15T07:38:03Z</time>
      </trkpt>
      <trkpt lat="43.45527" lon="5.74835">
        <ele>346.1</ele>
        <time>2015-04-15T07:38:18Z</time>
      </trkpt>
      <trkpt lat="43.45519" lon="5.74815">
        <ele>347.8</ele>
        <time>2015-04-15T07:38:29Z</time>
      </trkpt>
      <trkpt lat="43.45517" lon="5.74791">
        <ele>348.7</ele>
        <time>2015-04-15T07:38:42Z</time>
      </trkpt>
      <trkpt lat="43.45517" lon="5.7479">
        <ele>348.3</ele>
        <time>2015-04-15T07:38:43Z</time>
      </trkpt>
      <trkpt lat="43.45521" lon="5.74745">
        <ele>356.6</ele>
        <time>2015-04-15T07:39:09Z</time>
      </trkpt>
      <trkpt lat="43.45522" lon="5.74721">
        <ele>350.8</ele>
        <time>2015-04-15T07:39:27Z</time>
      </trkpt>
      <trkpt lat="43.45514" lon="5.74699">
        <ele>346.3</ele>
        <time>2015-04-15T07:39:43Z</time>
      </trkpt>
      <trkpt lat="43.45514" lon="5.74698">
        <ele>346.2</ele>
        <time>2015-04-15T07:39:44Z</time>
      </trkpt>
      <trkpt lat="43.4549" lon="5.74665">
        <ele>348.3</ele>
        <time>2015-04-15T07:40:12Z</time>
      </trkpt>
      <trkpt lat="43.45475" lon="5.74652">
        <ele>347.2</ele>
        <time>2015-04-15T07:40:27Z</time>
      </trkpt>
      <trkpt lat="43.45461" lon="5.74637">
        <ele>347.5</ele>
        <time>2015-04-15T07:40:43Z</time>
      </trkpt>
      <trkpt lat="43.45448" lon="5.74622">
        <ele>345.7</ele>
        <time>2015-04-15T07:40:59Z</time>
      </trkpt>
      <trkpt lat="43.45447" lon="5.74621">
        <ele>345.7</ele>
        <time>2015-04-15T07:41:00Z</time>
      </trkpt>
      <trkpt lat="43.4542" lon="5.74594">
        <ele>341.2</ele>
        <time>2015-04-15T07:41:28Z</time>
      </trkpt>
      <trkpt lat="43.45406" lon="5.74582">
        <ele>338.2</ele>
        <time>2015-04-15T07:41:42Z</time>
      </trkpt>
      <trkpt lat="43.4539" lon="5.74572">
        <ele>338.7</ele>
        <time>2015-04-15T07:41:56Z</time>
      </trkpt>
      <trkpt lat="43.45374" lon="5.74565">
        <ele>338.6</ele>
        <time>2015-04-15T07:42:11Z</time>
      </trkpt>
      <trkpt lat="43.45373" lon="5.74564">
        <ele>341.2</ele>
        <time>2015-04-15T07:42:12Z</time>
      </trkpt>
      <trkpt lat="43.45346" lon="5.74539">
        <ele>344.1</ele>
        <time>2015-04-15T07:42:44Z</time>
      </trkpt>
      <trkpt lat="43.45337" lon="5.74518">
        <ele>348.6</ele>
        <time>2015-04-15T07:42:56Z</time>
      </trkpt>
      <trkpt lat="43.45325" lon="5.74501">
        <ele>347.5</ele>
        <time>2015-04-15T07:43:12Z</time>
      </trkpt>
      <trkpt lat="43.45325" lon="5.74499">
        <ele>347.3</ele>
        <time>2015-04-15T07:43:13Z</time>
      </trkpt>
      <trkpt lat="43.45299" lon="5.74468">
        <ele>348.6</ele>
        <time>2015-04-15T07:43:41Z</time>
      </trkpt>
      <trkpt lat="43.45285" lon="5.74454">
        <ele>347.2</ele>
        <time>2015-04-15T07:43:58Z</time>
      </trkpt>
      <trkpt lat="43.4527" lon="5.7444">
        <ele>346.7</ele>
        <time>2015-04-15T07:44:15Z</time>
      </trkpt>
      <trkpt lat="43.4527" lon="5.7444">
        <ele>346.2</ele>
        <time>2015-04-15T07:44:16Z</time>
      </trkpt>
      <trkpt lat="43.45259" lon="5.74395">
        <ele>348.3</ele>
        <time>2015-04-15T07:44:45Z</time>
      </trkpt>
      <trkpt lat="43.45253" lon="5.74371">
        <ele>354.8</ele>
        <time>2015-04-15T07:48:43Z</time>
      </trkpt>
      <trkpt lat="43.45253" lon="5.7437">
        <ele>354.5</ele>
        <time>2015-04-15T07:48:44Z</time>
      </trkpt>
      <trkpt lat="43.45248" lon="5.74324">
        <ele>347.6</ele>
        <time>2015-04-15T07:49:15Z</time>
      </trkpt>
      <trkpt lat="43.45245" lon="5.743">
        <ele>346.1</ele>
        <time>2015-04-15T07:49:32Z</time>
      </trkpt>
      <trkpt lat="43.45241" lon="5.74276">
        <ele>344.1</ele>
        <time>2015-04-15T07:49:51Z</time>
      </trkpt>
      <trkpt lat="43.45242" lon="5.74275">
        <ele>344.3</ele>
        <time>2015-04-15T07:49:52Z</time>
      </trkpt>
      <trkpt lat="43.45242" lon="5.74228">
        <ele>346.7</ele>
        <time>2015-04-15T07:50:20Z</time>
      </trkpt>
      <trkpt lat="43.45231" lon="5.74208">
        <ele>346.2</ele>
        <time>2015-04-15T07:50:36Z</time>
      </trkpt>
      <trkpt lat="43.45214" lon="5.74204">
        <ele>339.7</ele>
        <time>2015-04-15T07:50:53Z</time>
      </trkpt>
      <trkpt lat="43.45213" lon="5.74204">
        <ele>339.2</ele>
        <time>2015-04-15T07:50:54Z</time>
      </trkpt>
      <trkpt lat="43.45182" lon="5.74185">
        <ele>335.7</ele>
        <time>2015-04-15T07:51:25Z</time>
      </trkpt>
      <trkpt lat="43.45164" lon="5.74183">
        <ele>328.7</ele>
        <time>2015-04-15T07:51:42Z</time>
      </trkpt>
      <trkpt lat="43.45149" lon="5.74173">
        <ele>328.1</ele>
        <time>2015-04-15T07:51:56Z</time>
      </trkpt>
      <trkpt lat="43.45148" lon="5.74171">
        <ele>329.2</ele>
        <time>2015-04-15T07:51:57Z</time>
      </trkpt>
      <trkpt lat="43.45122" lon="5.74144">
        <ele>333.5</ele>
        <time>2015-04-15T07:52:29Z</time>
      </trkpt>
      <trkpt lat="43.45107" lon="5.74131">
        <ele>333</ele>
        <time>2015-04-15T07:52:44Z</time>
      </trkpt>
      <trkpt lat="43.45089" lon="5.74126">
        <ele>337.3</ele>
        <time>2015-04-15T07:53:04Z</time>
      </trkpt>
      <trkpt lat="43.45089" lon="5.74125">
        <ele>339.2</ele>
        <time>2015-04-15T07:53:05Z</time>
      </trkpt>
      <trkpt lat="43.45055" lon="5.74122">
        <ele>353.8</ele>
        <time>2015-04-15T07:53:38Z</time>
      </trkpt>
      <trkpt lat="43.45038" lon="5.74114">
        <ele>356.6</ele>
        <time>2015-04-15T07:53:56Z</time>
      </trkpt>
      <trkpt lat="43.45022" lon="5.74103">
        <ele>353</ele>
        <time>2015-04-15T07:54:14Z</time>
      </trkpt>
      <trkpt lat="43.45021" lon="5.74103">
        <ele>352.1</ele>
        <time>2015-04-15T07:54:15Z</time>
      </trkpt>
      <trkpt lat="43.45002" lon="5.74066">
        <ele>352.6</ele>
        <time>2015-04-15T07:54:48Z</time>
      </trkpt>
      <trkpt lat="43.44987" lon="5.74055">
        <ele>350.7</ele>
        <time>2015-04-15T07:55:04Z</time>
      </trkpt>
      <trkpt lat="43.44976" lon="5.74038">
        <ele>353.2</ele>
        <time>2015-04-15T07:55:16Z</time>
      </trkpt>
      <trkpt lat="43.44976" lon="5.74036">
        <ele>353.6</ele>
        <time>2015-04-15T07:55:17Z</time>
      </trkpt>
      <trkpt lat="43.44948" lon="5.7401">
        <ele>342.2</ele>
        <time>2015-04-15T07:55:56Z</time>
      </trkpt>
      <trkpt lat="43.44932" lon="5.74">
        <ele>334.8</ele>
        <time>2015-04-15T07:56:17Z</time>
      </trkpt>
      <trkpt lat="43.44931" lon="5.74">
        <ele>335.2</ele>
        <time>2015-04-15T07:56:18Z</time>
      </trkpt>
      <trkpt lat="43.449" lon="5.73982">
        <ele>350.1</ele>
        <time>2015-04-15T07:56:48Z</time>
      </trkpt>
      <trkpt lat="43.44885" lon="5.73993">
        <ele>371.8</ele>
        <time>2015-04-15T07:57:14Z</time>
      </trkpt>
      <trkpt lat="43.4488" lon="5.74016">
        <ele>378</ele>
        <time>2015-04-15T07:57:37Z</time>
      </trkpt>
      <trkpt lat="43.44879" lon="5.74018">
        <ele>377.8</ele>
        <time>2015-04-15T07:57:38Z</time>
      </trkpt>
      <trkpt lat="43.44875" lon="5.74063">
        <ele>382.5</ele>
        <time>2015-04-15T07:58:13Z</time>
      </trkpt>
      <trkpt lat="43.44871" lon="5.74087">
        <ele>383.7</ele>
        <time>2015-04-15T07:58:38Z</time>
      </trkpt>
      <trkpt lat="43.44871" lon="5.74088">
        <ele>383.2</ele>
        <time>2015-04-15T07:58:39Z</time>
      </trkpt>
      <trkpt lat="43.44871" lon="5.74136">
        <ele>384.1</ele>
        <time>2015-04-15T07:59:24Z</time>
      </trkpt>
      <trkpt lat="43.44869" lon="5.7416">
        <ele>388.6</ele>
        <time>2015-04-15T07:59:48Z</time>
      </trkpt>
      <trkpt lat="43.44869" lon="5.74162">
        <ele>389.5</ele>
        <time>2015-04-15T07:59:49Z</time>
      </trkpt>
      <trkpt lat="43.44858" lon="5.74203">
        <ele>385.2</ele>
        <time>2015-04-15T08:00:13Z</time>
      </trkpt>
      <trkpt lat="43.44849" lon="5.74224">
        <ele>386.2</ele>
        <time>2015-04-15T08:00:30Z</time>
      </trkpt>
      <trkpt lat="43.44837" lon="5.74241">
        <ele>387.7</ele>
        <time>2015-04-15T08:00:41Z</time>
      </trkpt>
      <trkpt lat="43.44825" lon="5.74256">
        <ele>388.6</ele>
        <time>2015-04-15T08:00:48Z</time>
      </trkpt>
      <trkpt lat="43.44812" lon="5.74271">
        <ele>389</ele>
        <time>2015-04-15T08:01:00Z</time>
      </trkpt>
      <trkpt lat="43.4481" lon="5.74273">
        <ele>388.8</ele>
        <time>2015-04-15T08:01:01Z</time>
      </trkpt>
      <trkpt lat="43.44793" lon="5.74311">
        <ele>389.8</ele>
        <time>2015-04-15T08:01:39Z</time>
      </trkpt>
      <trkpt lat="43.44786" lon="5.74332">
        <ele>393</ele>
        <time>2015-04-15T08:01:54Z</time>
      </trkpt>
      <trkpt lat="43.44777" lon="5.74353">
        <ele>395.1</ele>
        <time>2015-04-15T08:02:14Z</time>
      </trkpt>
      <trkpt lat="43.44776" lon="5.74355">
        <ele>395.3</ele>
        <time>2015-04-15T08:02:15Z</time>
      </trkpt>
      <trkpt lat="43.44764" lon="5.74398">
        <ele>399.6</ele>
        <time>2015-04-15T08:02:55Z</time>
      </trkpt>
      <trkpt lat="43.44759" lon="5.74421">
        <ele>397.6</ele>
        <time>2015-04-15T08:03:26Z</time>
      </trkpt>
      <trkpt lat="43.44758" lon="5.74423">
        <ele>397.2</ele>
        <time>2015-04-15T08:03:27Z</time>
      </trkpt>
      <trkpt lat="43.44746" lon="5.74441">
        <ele>404.2</ele>
        <time>2015-04-15T08:13:39Z</time>
      </trkpt>
      <trkpt lat="43.44738" lon="5.74486">
        <ele>405.5</ele>
        <time>2015-04-15T08:14:31Z</time>
      </trkpt>
      <trkpt lat="43.44722" lon="5.74495">
        <ele>405.5</ele>
        <time>2015-04-15T08:14:53Z</time>
      </trkpt>
      <trkpt lat="43.44721" lon="5.74496">
        <ele>405.3</ele>
        <time>2015-04-15T08:14:54Z</time>
      </trkpt>
      <trkpt lat="43.4469" lon="5.74515">
        <ele>408.7</ele>
        <time>2015-04-15T08:15:36Z</time>
      </trkpt>
      <trkpt lat="43.44675" lon="5.74527">
        <ele>410.5</ele>
        <time>2015-04-15T08:16:19Z</time>
      </trkpt>
      <trkpt lat="43.44674" lon="5.74527">
        <ele>410.2</ele>
        <time>2015-04-15T08:16:20Z</time>
      </trkpt>
      <trkpt lat="43.44647" lon="5.74554">
        <ele>409.3</ele>
        <time>2015-04-15T08:17:00Z</time>
      </trkpt>
      <trkpt lat="43.4463" lon="5.7456">
        <ele>409.7</ele>
        <time>2015-04-15T08:17:22Z</time>
      </trkpt>
      <trkpt lat="43.44629" lon="5.7456">
        <ele>409.6</ele>
        <time>2015-04-15T08:17:23Z</time>
      </trkpt>
      <trkpt lat="43.44608" lon="5.74597">
        <ele>414.7</ele>
        <time>2015-04-15T08:18:08Z</time>
      </trkpt>
      <trkpt lat="43.44593" lon="5.74609">
        <ele>417.2</ele>
        <time>2015-04-15T08:18:30Z</time>
      </trkpt>
      <trkpt lat="43.44592" lon="5.7461">
        <ele>417.5</ele>
        <time>2015-04-15T08:18:31Z</time>
      </trkpt>
      <trkpt lat="43.44565" lon="5.74637">
        <ele>428.6</ele>
        <time>2015-04-15T08:19:27Z</time>
      </trkpt>
      <trkpt lat="43.44554" lon="5.74657">
        <ele>436.5</ele>
        <time>2015-04-15T08:20:13Z</time>
      </trkpt>
      <trkpt lat="43.44553" lon="5.74657">
        <ele>436.5</ele>
        <time>2015-04-15T08:20:14Z</time>
      </trkpt>
      <trkpt lat="43.44525" lon="5.74685">
        <ele>428.2</ele>
        <time>2015-04-15T08:21:00Z</time>
      </trkpt>
      <trkpt lat="43.44512" lon="5.74701">
        <ele>435.3</ele>
        <time>2015-04-15T08:21:22Z</time>
      </trkpt>
      <trkpt lat="43.44511" lon="5.74702">
        <ele>435.2</ele>
        <time>2015-04-15T08:21:23Z</time>
      </trkpt>
      <trkpt lat="43.44486" lon="5.74734">
        <ele>452.7</ele>
        <time>2015-04-15T08:22:25Z</time>
      </trkpt>
      <trkpt lat="43.44486" lon="5.74734">
        <ele>452.5</ele>
        <time>2015-04-15T08:22:26Z</time>
      </trkpt>
      <trkpt lat="43.44462" lon="5.7477">
        <ele>455</ele>
        <time>2015-04-15T08:23:33Z</time>
      </trkpt>
      <trkpt lat="43.44462" lon="5.7477">
        <ele>455.1</ele>
        <time>2015-04-15T08:23:34Z</time>
      </trkpt>
      <trkpt lat="43.44444" lon="5.7481">
        <ele>458.3</ele>
        <time>2015-04-15T08:24:26Z</time>
      </trkpt>
      <trkpt lat="43.44442" lon="5.74835">
        <ele>455.5</ele>
        <time>2015-04-15T08:24:48Z</time>
      </trkpt>
      <trkpt lat="43.44443" lon="5.74835">
        <ele>456.5</ele>
        <time>2015-04-15T08:24:49Z</time>
      </trkpt>
      <trkpt lat="43.44441" lon="5.74882">
        <ele>468.6</ele>
        <time>2015-04-15T08:25:46Z</time>
      </trkpt>
      <trkpt lat="43.44428" lon="5.749">
        <ele>479.3</ele>
        <time>2015-04-15T08:26:13Z</time>
      </trkpt>
      <trkpt lat="43.44428" lon="5.74901">
        <ele>479.3</ele>
        <time>2015-04-15T08:26:14Z</time>
      </trkpt>
      <trkpt lat="43.44416" lon="5.74945">
        <ele>478.7</ele>
        <time>2015-04-15T08:27:07Z</time>
      </trkpt>
      <trkpt lat="43.44412" lon="5.74969">
        <ele>477.8</ele>
        <time>2015-04-15T08:27:34Z</time>
      </trkpt>
      <trkpt lat="43.44412" lon="5.74969">
        <ele>478</ele>
        <time>2015-04-15T08:27:35Z</time>
      </trkpt>
      <trkpt lat="43.44409" lon="5.75017">
        <ele>486.7</ele>
        <time>2015-04-15T08:28:17Z</time>
      </trkpt>
      <trkpt lat="43.44412" lon="5.75041">
        <ele>495.6</ele>
        <time>2015-04-15T08:28:40Z</time>
      </trkpt>
      <trkpt lat="43.44412" lon="5.75042">
        <ele>496.2</ele>
        <time>2015-04-15T08:28:41Z</time>
      </trkpt>
      <trkpt lat="43.44409" lon="5.75088">
        <ele>495.1</ele>
        <time>2015-04-15T08:29:31Z</time>
      </trkpt>
      <trkpt lat="43.44417" lon="5.75111">
        <ele>506.1</ele>
        <time>2015-04-15T08:30:30Z</time>
      </trkpt>
      <trkpt lat="43.44418" lon="5.75111">
        <ele>506.6</ele>
        <time>2015-04-15T08:30:31Z</time>
      </trkpt>
      <trkpt lat="43.44426" lon="5.75133">
        <ele>508</ele>
        <time>2015-04-15T08:32:49Z</time>
      </trkpt>
      <trkpt lat="43.44409" lon="5.75172">
        <ele>506.5</ele>
        <time>2015-04-15T08:33:35Z</time>
      </trkpt>
      <trkpt lat="43.44394" lon="5.75186">
        <ele>508.5</ele>
        <time>2015-04-15T08:34:00Z</time>
      </trkpt>
      <trkpt lat="43.44393" lon="5.75187">
        <ele>508.7</ele>
        <time>2015-04-15T08:34:01Z</time>
      </trkpt>
      <trkpt lat="43.44361" lon="5.75201">
        <ele>542.2</ele>
        <time>2015-04-15T08:35:02Z</time>
      </trkpt>
      <trkpt lat="43.44361" lon="5.75202">
        <ele>541.2</ele>
        <time>2015-04-15T08:35:03Z</time>
      </trkpt>
      <trkpt lat="43.44331" lon="5.75227">
        <ele>527.4</ele>
        <time>2015-04-15T08:35:48Z</time>
      </trkpt>
      <trkpt lat="43.44321" lon="5.75247">
        <ele>526</ele>
        <time>2015-04-15T08:36:13Z</time>
      </trkpt>
      <trkpt lat="43.44321" lon="5.75247">
        <ele>527.2</ele>
        <time>2015-04-15T08:36:14Z</time>
      </trkpt>
      <trkpt lat="43.443" lon="5.75285">
        <ele>537.9</ele>
        <time>2015-04-15T08:37:02Z</time>
      </trkpt>
      <trkpt lat="43.44292" lon="5.75307">
        <ele>536.9</ele>
        <time>2015-04-15T08:37:28Z</time>
      </trkpt>
      <trkpt lat="43.44293" lon="5.75307">
        <ele>537.5</ele>
        <time>2015-04-15T08:37:29Z</time>
      </trkpt>
      <trkpt lat="43.44324" lon="5.75318">
        <ele>549.5</ele>
        <time>2015-04-15T08:38:15Z</time>
      </trkpt>
      <trkpt lat="43.44341" lon="5.75319">
        <ele>552.5</ele>
        <time>2015-04-15T08:38:41Z</time>
      </trkpt>
      <trkpt lat="43.44342" lon="5.75318">
        <ele>552.7</ele>
        <time>2015-04-15T08:38:42Z</time>
      </trkpt>
      <trkpt lat="43.44374" lon="5.75333">
        <ele>559.7</ele>
        <time>2015-04-15T08:39:44Z</time>
      </trkpt>
      <trkpt lat="43.44375" lon="5.75333">
        <ele>560.2</ele>
        <time>2015-04-15T08:39:45Z</time>
      </trkpt>
      <trkpt lat="43.44396" lon="5.75369">
        <ele>569.2</ele>
        <time>2015-04-15T08:40:33Z</time>
      </trkpt>
      <trkpt lat="43.44407" lon="5.75388">
        <ele>571</ele>
        <time>2015-04-15T08:40:53Z</time>
      </trkpt>
      <trkpt lat="43.44407" lon="5.75389">
        <ele>571.5</ele>
        <time>2015-04-15T08:40:54Z</time>
      </trkpt>
      <trkpt lat="43.44441" lon="5.75402">
        <ele>576.5</ele>
        <time>2015-04-15T08:43:21Z</time>
      </trkpt>
      <trkpt lat="43.44442" lon="5.75402">
        <ele>576.7</ele>
        <time>2015-04-15T08:43:22Z</time>
      </trkpt>
      <trkpt lat="43.44474" lon="5.75411">
        <ele>580.2</ele>
        <time>2015-04-15T08:44:10Z</time>
      </trkpt>
      <trkpt lat="43.44487" lon="5.75427">
        <ele>580</ele>
        <time>2015-04-15T08:44:34Z</time>
      </trkpt>
      <trkpt lat="43.44488" lon="5.75428">
        <ele>580</ele>
        <time>2015-04-15T08:44:35Z</time>
      </trkpt>
      <trkpt lat="43.44506" lon="5.75469">
        <ele>584.7</ele>
        <time>2015-04-15T08:45:09Z</time>
      </trkpt>
      <trkpt lat="43.44517" lon="5.75487">
        <ele>585.5</ele>
        <time>2015-04-15T08:45:28Z</time>
      </trkpt>
      <trkpt lat="43.44529" lon="5.75505">
        <ele>584.5</ele>
        <time>2015-04-15T08:45:49Z</time>
      </trkpt>
      <trkpt lat="43.44529" lon="5.75506">
        <ele>584.2</ele>
        <time>2015-04-15T08:45:50Z</time>
      </trkpt>
      <trkpt lat="43.44559" lon="5.75529">
        <ele>586.5</ele>
        <time>2015-04-15T08:46:35Z</time>
      </trkpt>
      <trkpt lat="43.44576" lon="5.75524">
        <ele>594.7</ele>
        <time>2015-04-15T08:47:01Z</time>
      </trkpt>
      <trkpt lat="43.44577" lon="5.75523">
        <ele>595</ele>
        <time>2015-04-15T08:47:02Z</time>
      </trkpt>
      <trkpt lat="43.44611" lon="5.75533">
        <ele>595.7</ele>
        <time>2015-04-15T08:47:53Z</time>
      </trkpt>
      <trkpt lat="43.44628" lon="5.75529">
        <ele>604</ele>
        <time>2015-04-15T08:48:20Z</time>
      </trkpt>
      <trkpt lat="43.44629" lon="5.75529">
        <ele>604.2</ele>
        <time>2015-04-15T08:48:21Z</time>
      </trkpt>
      <trkpt lat="43.44663" lon="5.75527">
        <ele>607.7</ele>
        <time>2015-04-15T08:49:10Z</time>
      </trkpt>
      <trkpt lat="43.4468" lon="5.75527">
        <ele>612.7</ele>
        <time>2015-04-15T08:49:32Z</time>
      </trkpt>
      <trkpt lat="43.44681" lon="5.75526">
        <ele>613.2</ele>
        <time>2015-04-15T08:49:33Z</time>
      </trkpt>
      <trkpt lat="43.44715" lon="5.75527">
        <ele>610.2</ele>
        <time>2015-04-15T08:50:26Z</time>
      </trkpt>
      <trkpt lat="43.4473" lon="5.75539">
        <ele>612</ele>
        <time>2015-04-15T08:50:49Z</time>
      </trkpt>
      <trkpt lat="43.44731" lon="5.7554">
        <ele>612.2</ele>
        <time>2015-04-15T08:50:50Z</time>
      </trkpt>
      <trkpt lat="43.44727" lon="5.75586">
        <ele>620.7</ele>
        <time>2015-04-15T08:51:53Z</time>
      </trkpt>
      <trkpt lat="43.44727" lon="5.75587">
        <ele>621.2</ele>
        <time>2015-04-15T08:51:54Z</time>
      </trkpt>
      <trkpt lat="43.4471" lon="5.75592">
        <ele>632.2</ele>
        <time>2015-04-15T08:56:36Z</time>
      </trkpt>
      <trkpt lat="43.44677" lon="5.7561">
        <ele>632.9</ele>
        <time>2015-04-15T08:57:13Z</time>
      </trkpt>
      <trkpt lat="43.44662" lon="5.75622">
        <ele>628.5</ele>
        <time>2015-04-15T08:57:30Z</time>
      </trkpt>
      <trkpt lat="43.44646" lon="5.7563">
        <ele>629.5</ele>
        <time>2015-04-15T08:57:48Z</time>
      </trkpt>
      <trkpt lat="43.44645" lon="5.7563">
        <ele>629.7</ele>
        <time>2015-04-15T08:57:49Z</time>
      </trkpt>
      <trkpt lat="43.44615" lon="5.75648">
        <ele>630.7</ele>
        <time>2015-04-15T08:58:21Z</time>
      </trkpt>
      <trkpt lat="43.44609" lon="5.7567">
        <ele>629</ele>
        <time>2015-04-15T08:58:40Z</time>
      </trkpt>
      <trkpt lat="43.44592" lon="5.75674">
        <ele>629</ele>
        <time>2015-04-15T08:58:56Z</time>
      </trkpt>
      <trkpt lat="43.44591" lon="5.75674">
        <ele>629</ele>
        <time>2015-04-15T08:58:57Z</time>
      </trkpt>
      <trkpt lat="43.44557" lon="5.75666">
        <ele>632.2</ele>
        <time>2015-04-15T08:59:30Z</time>
      </trkpt>
      <trkpt lat="43.4454" lon="5.75672">
        <ele>635</ele>
        <time>2015-04-15T08:59:49Z</time>
      </trkpt>
      <trkpt lat="43.44523" lon="5.75674">
        <ele>634.2</ele>
        <time>2015-04-15T09:00:08Z</time>
      </trkpt>
      <trkpt lat="43.44522" lon="5.75674">
        <ele>634.5</ele>
        <time>2015-04-15T09:00:09Z</time>
      </trkpt>
      <trkpt lat="43.44488" lon="5.7567">
        <ele>645.2</ele>
        <time>2015-04-15T09:00:45Z</time>
      </trkpt>
      <trkpt lat="43.44471" lon="5.75671">
        <ele>649.7</ele>
        <time>2015-04-15T09:01:03Z</time>
      </trkpt>
      <trkpt lat="43.44454" lon="5.75676">
        <ele>651.2</ele>
        <time>2015-04-15T09:01:22Z</time>
      </trkpt>
      <trkpt lat="43.44453" lon="5.75676">
        <ele>651</ele>
        <time>2015-04-15T09:01:23Z</time>
      </trkpt>
      <trkpt lat="43.44423" lon="5.75658">
        <ele>656.2</ele>
        <time>2015-04-15T09:02:03Z</time>
      </trkpt>
      <trkpt lat="43.44406" lon="5.75651">
        <ele>658.7</ele>
        <time>2015-04-15T09:02:25Z</time>
      </trkpt>
      <trkpt lat="43.44405" lon="5.75651">
        <ele>658.5</ele>
        <time>2015-04-15T09:02:26Z</time>
      </trkpt>
      <trkpt lat="43.44371" lon="5.75654">
        <ele>662.7</ele>
        <time>2015-04-15T09:03:16Z</time>
      </trkpt>
      <trkpt lat="43.44357" lon="5.75668">
        <ele>669.5</ele>
        <time>2015-04-15T09:03:41Z</time>
      </trkpt>
      <trkpt lat="43.44356" lon="5.75669">
        <ele>669.5</ele>
        <time>2015-04-15T09:03:42Z</time>
      </trkpt>
      <trkpt lat="43.44325" lon="5.75685">
        <ele>667.9</ele>
        <time>2015-04-15T09:04:26Z</time>
      </trkpt>
      <trkpt lat="43.44308" lon="5.7568">
        <ele>669.7</ele>
        <time>2015-04-15T09:04:47Z</time>
      </trkpt>
      <trkpt lat="43.44307" lon="5.7568">
        <ele>669.9</ele>
        <time>2015-04-15T09:04:48Z</time>
      </trkpt>
      <trkpt lat="43.44276" lon="5.75698">
        <ele>678.2</ele>
        <time>2015-04-15T09:05:31Z</time>
      </trkpt>
      <trkpt lat="43.44258" lon="5.75702">
        <ele>680</ele>
        <time>2015-04-15T09:05:52Z</time>
      </trkpt>
      <trkpt lat="43.44258" lon="5.75701">
        <ele>679.7</ele>
        <time>2015-04-15T09:05:53Z</time>
      </trkpt>
      <trkpt lat="43.44238" lon="5.75662">
        <ele>684.7</ele>
        <time>2015-04-15T09:06:43Z</time>
      </trkpt>
      <trkpt lat="43.44222" lon="5.7565">
        <ele>686.2</ele>
        <time>2015-04-15T09:07:05Z</time>
      </trkpt>
      <trkpt lat="43.44221" lon="5.7565">
        <ele>686.4</ele>
        <time>2015-04-15T09:07:06Z</time>
      </trkpt>
      <trkpt lat="43.4419" lon="5.7567">
        <ele>690.2</ele>
        <time>2015-04-15T09:07:40Z</time>
      </trkpt>
      <trkpt lat="43.44175" lon="5.75681">
        <ele>692.9</ele>
        <time>2015-04-15T09:07:54Z</time>
      </trkpt>
      <trkpt lat="43.44157" lon="5.75684">
        <ele>689.7</ele>
        <time>2015-04-15T09:08:10Z</time>
      </trkpt>
      <trkpt lat="43.44156" lon="5.75682">
        <ele>691.7</ele>
        <time>2015-04-15T09:08:11Z</time>
      </trkpt>
      <trkpt lat="43.44123" lon="5.75671">
        <ele>685</ele>
        <time>2015-04-15T09:08:46Z</time>
      </trkpt>
      <trkpt lat="43.44106" lon="5.75663">
        <ele>689.2</ele>
        <time>2015-04-15T09:09:05Z</time>
      </trkpt>
      <trkpt lat="43.44089" lon="5.75665">
        <ele>696.7</ele>
        <time>2015-04-15T09:09:26Z</time>
      </trkpt>
      <trkpt lat="43.44088" lon="5.75665">
        <ele>696.9</ele>
        <time>2015-04-15T09:09:27Z</time>
      </trkpt>
      <trkpt lat="43.44058" lon="5.75686">
        <ele>704</ele>
        <time>2015-04-15T09:10:08Z</time>
      </trkpt>
      <trkpt lat="43.44042" lon="5.75696">
        <ele>707.2</ele>
        <time>2015-04-15T09:10:29Z</time>
      </trkpt>
      <trkpt lat="43.44041" lon="5.75697">
        <ele>707.7</ele>
        <time>2015-04-15T09:10:30Z</time>
      </trkpt>
      <trkpt lat="43.44011" lon="5.75719">
        <ele>714.4</ele>
        <time>2015-04-15T09:11:12Z</time>
      </trkpt>
      <trkpt lat="43.43996" lon="5.75732">
        <ele>717.7</ele>
        <time>2015-04-15T09:11:34Z</time>
      </trkpt>
      <trkpt lat="43.43996" lon="5.75733">
        <ele>718</ele>
        <time>2015-04-15T09:11:35Z</time>
      </trkpt>
      <trkpt lat="43.43995" lon="5.75774">
        <ele>722.9</ele>
        <time>2015-04-15T09:12:20Z</time>
      </trkpt>
      <trkpt lat="43.44013" lon="5.75775">
        <ele>723.2</ele>
        <time>2015-04-15T09:13:53Z</time>
      </trkpt>
      <trkpt lat="43.44013" lon="5.75775">
        <ele>723.2</ele>
        <time>2015-04-15T09:13:54Z</time>
      </trkpt>
      <trkpt lat="43.44031" lon="5.75779">
        <ele>728.5</ele>
        <time>2015-04-15T09:23:09Z</time>
      </trkpt>
      <trkpt lat="43.44059" lon="5.75805">
        <ele>727.2</ele>
        <time>2015-04-15T09:23:47Z</time>
      </trkpt>
      <trkpt lat="43.44075" lon="5.75818">
        <ele>726.9</ele>
        <time>2015-04-15T09:24:06Z</time>
      </trkpt>
      <trkpt lat="43.44091" lon="5.75827">
        <ele>731.7</ele>
        <time>2015-04-15T09:24:39Z</time>
      </trkpt>
      <trkpt lat="43.44092" lon="5.75827">
        <ele>731.9</ele>
        <time>2015-04-15T09:24:40Z</time>
      </trkpt>
      <trkpt lat="43.44126" lon="5.75833">
        <ele>744.2</ele>
        <time>2015-04-15T09:25:53Z</time>
      </trkpt>
      <trkpt lat="43.44127" lon="5.75832">
        <ele>744.2</ele>
        <time>2015-04-15T09:25:54Z</time>
      </trkpt>
      <trkpt lat="43.44161" lon="5.75841">
        <ele>756.7</ele>
        <time>2015-04-15T09:27:16Z</time>
      </trkpt>
      <trkpt lat="43.44161" lon="5.75841">
        <ele>756.5</ele>
        <time>2015-04-15T09:27:17Z</time>
      </trkpt>
      <trkpt lat="43.4419" lon="5.75867">
        <ele>757.2</ele>
        <time>2015-04-15T09:27:59Z</time>
      </trkpt>
      <trkpt lat="43.44205" lon="5.75881">
        <ele>759</ele>
        <time>2015-04-15T09:28:26Z</time>
      </trkpt>
      <trkpt lat="43.44205" lon="5.75881">
        <ele>759</ele>
        <time>2015-04-15T09:28:27Z</time>
      </trkpt>
      <trkpt lat="43.44226" lon="5.75917">
        <ele>770.7</ele>
        <time>2015-04-15T09:29:42Z</time>
      </trkpt>
      <trkpt lat="43.44227" lon="5.75918">
        <ele>770.7</ele>
        <time>2015-04-15T09:29:43Z</time>
      </trkpt>
      <trkpt lat="43.44254" lon="5.75948">
        <ele>775.5</ele>
        <time>2015-04-15T09:30:31Z</time>
      </trkpt>
      <trkpt lat="43.44266" lon="5.75965">
        <ele>778.7</ele>
        <time>2015-04-15T09:31:04Z</time>
      </trkpt>
      <trkpt lat="43.44267" lon="5.75965">
        <ele>778.7</ele>
        <time>2015-04-15T09:31:05Z</time>
      </trkpt>
      <trkpt lat="43.44285" lon="5.76006">
        <ele>790.7</ele>
        <time>2015-04-15T09:32:27Z</time>
      </trkpt>
      <trkpt lat="43.44286" lon="5.76006">
        <ele>790.9</ele>
        <time>2015-04-15T09:32:28Z</time>
      </trkpt>
      <trkpt lat="43.44315" lon="5.76032">
        <ele>807.2</ele>
        <time>2015-04-15T09:34:42Z</time>
      </trkpt>
      <trkpt lat="43.44315" lon="5.76033">
        <ele>807.2</ele>
        <time>2015-04-15T09:34:43Z</time>
      </trkpt>
      <trkpt lat="43.44337" lon="5.76069">
        <ele>812.2</ele>
        <time>2015-04-15T09:35:52Z</time>
      </trkpt>
      <trkpt lat="43.44337" lon="5.76069">
        <ele>812.2</ele>
        <time>2015-04-15T09:35:53Z</time>
      </trkpt>
      <trkpt lat="43.44356" lon="5.76109">
        <ele>820.5</ele>
        <time>2015-04-15T09:36:59Z</time>
      </trkpt>
      <trkpt lat="43.44357" lon="5.7611">
        <ele>820.9</ele>
        <time>2015-04-15T09:37:00Z</time>
      </trkpt>
      <trkpt lat="43.4437" lon="5.76126">
        <ele>830.7</ele>
        <time>2015-04-15T09:38:31Z</time>
      </trkpt>
      <trkpt lat="43.4438" lon="5.76146">
        <ele>836.9</ele>
        <time>2015-04-15T09:39:32Z</time>
      </trkpt>
      <trkpt lat="43.44397" lon="5.76153">
        <ele>845.2</ele>
        <time>2015-04-15T09:41:11Z</time>
      </trkpt>
      <trkpt lat="43.44431" lon="5.76144">
        <ele>862.4</ele>
        <time>2015-04-15T09:42:50Z</time>
      </trkpt>
      <trkpt lat="43.44431" lon="5.76144">
        <ele>862.5</ele>
        <time>2015-04-15T09:42:51Z</time>
      </trkpt>
      <trkpt lat="43.44464" lon="5.76158">
        <ele>882.5</ele>
        <time>2015-04-15T09:46:12Z</time>
      </trkpt>
      <trkpt lat="43.44465" lon="5.76158">
        <ele>882.5</ele>
        <time>2015-04-15T09:46:13Z</time>
      </trkpt>
      <trkpt lat="43.44493" lon="5.76134">
        <ele>884.5</ele>
        <time>2015-04-15T09:47:02Z</time>
      </trkpt>
      <trkpt lat="43.4451" lon="5.76134">
        <ele>883.2</ele>
        <time>2015-04-15T09:48:32Z</time>
      </trkpt>
      <trkpt lat="43.44511" lon="5.76134">
        <ele>883</ele>
        <time>2015-04-15T09:48:33Z</time>
      </trkpt>
      <trkpt lat="43.44518" lon="5.76145">
        <ele>881.5</ele>
        <time>2015-04-15T09:49:32Z</time>
      </trkpt>
      <trkpt lat="43.44517" lon="5.76146">
        <ele>885.5</ele>
        <time>2015-04-15T11:23:37Z</time>
      </trkpt>
      <trkpt lat="43.44517" lon="5.76146">
        <ele>885</ele>
        <time>2015-04-15T11:23:38Z</time>
      </trkpt>
      <trkpt lat="43.44503" lon="5.7613">
        <ele>880.2</ele>
        <time>2015-04-15T11:25:11Z</time>
      </trkpt>
      <trkpt lat="43.44503" lon="5.7613">
        <ele>880.2</ele>
        <time>2015-04-15T11:25:12Z</time>
      </trkpt>
      <trkpt lat="43.44469" lon="5.76125">
        <ele>883.9</ele>
        <time>2015-04-15T11:26:21Z</time>
      </trkpt>
      <trkpt lat="43.44468" lon="5.76125">
        <ele>883.7</ele>
        <time>2015-04-15T11:26:22Z</time>
      </trkpt>
      <trkpt lat="43.44437" lon="5.76113">
        <ele>872.5</ele>
        <time>2015-04-15T11:27:57Z</time>
      </trkpt>
      <trkpt lat="43.44436" lon="5.76114">
        <ele>872.5</ele>
        <time>2015-04-15T11:27:58Z</time>
      </trkpt>
      <trkpt lat="43.4441" lon="5.76142">
        <ele>862.2</ele>
        <time>2015-04-15T11:29:02Z</time>
      </trkpt>
      <trkpt lat="43.44409" lon="5.76142">
        <ele>862.2</ele>
        <time>2015-04-15T11:29:03Z</time>
      </trkpt>
      <trkpt lat="43.44375" lon="5.76144">
        <ele>851</ele>
        <time>2015-04-15T11:30:08Z</time>
      </trkpt>
      <trkpt lat="43.44374" lon="5.76144">
        <ele>850.7</ele>
        <time>2015-04-15T11:30:09Z</time>
      </trkpt>
      <trkpt lat="43.44351" lon="5.76109">
        <ele>835.5</ele>
        <time>2015-04-15T11:31:02Z</time>
      </trkpt>
      <trkpt lat="43.4434" lon="5.7609">
        <ele>833.7</ele>
        <time>2015-04-15T11:31:28Z</time>
      </trkpt>
      <trkpt lat="43.44339" lon="5.76089">
        <ele>833.7</ele>
        <time>2015-04-15T11:31:29Z</time>
      </trkpt>
      <trkpt lat="43.44325" lon="5.76047">
        <ele>820.7</ele>
        <time>2015-04-15T11:32:23Z</time>
      </trkpt>
      <trkpt lat="43.4431" lon="5.76034">
        <ele>816.9</ele>
        <time>2015-04-15T11:32:48Z</time>
      </trkpt>
      <trkpt lat="43.44309" lon="5.76033">
        <ele>816.9</ele>
        <time>2015-04-15T11:32:49Z</time>
      </trkpt>
      <trkpt lat="43.44281" lon="5.76007">
        <ele>809.5</ele>
        <time>2015-04-15T11:34:06Z</time>
      </trkpt>
      <trkpt lat="43.4428" lon="5.76006">
        <ele>809.4</ele>
        <time>2015-04-15T11:34:07Z</time>
      </trkpt>
      <trkpt lat="43.44262" lon="5.75967">
        <ele>791.4</ele>
        <time>2015-04-15T11:35:02Z</time>
      </trkpt>
      <trkpt lat="43.44251" lon="5.75949">
        <ele>787.2</ele>
        <time>2015-04-15T11:35:24Z</time>
      </trkpt>
      <trkpt lat="43.4425" lon="5.75948">
        <ele>787</ele>
        <time>2015-04-15T11:35:25Z</time>
      </trkpt>
      <trkpt lat="43.44224" lon="5.75918">
        <ele>781</ele>
        <time>2015-04-15T11:35:55Z</time>
      </trkpt>
      <trkpt lat="43.44207" lon="5.75912">
        <ele>777.4</ele>
        <time>2015-04-15T11:36:20Z</time>
      </trkpt>
      <trkpt lat="43.44203" lon="5.75888">
        <ele>770.7</ele>
        <time>2015-04-15T11:36:40Z</time>
      </trkpt>
      <trkpt lat="43.44203" lon="5.75888">
        <ele>770.7</ele>
        <time>2015-04-15T11:36:41Z</time>
      </trkpt>
      <trkpt lat="43.44175" lon="5.75859">
        <ele>762.4</ele>
        <time>2015-04-15T11:37:19Z</time>
      </trkpt>
      <trkpt lat="43.44162" lon="5.75844">
        <ele>760.4</ele>
        <time>2015-04-15T11:37:33Z</time>
      </trkpt>
      <trkpt lat="43.44146" lon="5.75833">
        <ele>758.7</ele>
        <time>2015-04-15T11:37:47Z</time>
      </trkpt>
      <trkpt lat="43.44145" lon="5.75833">
        <ele>758.5</ele>
        <time>2015-04-15T11:37:48Z</time>
      </trkpt>
      <trkpt lat="43.44117" lon="5.75806">
        <ele>746.5</ele>
        <time>2015-04-15T11:38:41Z</time>
      </trkpt>
      <trkpt lat="43.44102" lon="5.75794">
        <ele>741.2</ele>
        <time>2015-04-15T11:39:08Z</time>
      </trkpt>
      <trkpt lat="43.44101" lon="5.75794">
        <ele>741.2</ele>
        <time>2015-04-15T11:39:09Z</time>
      </trkpt>
      <trkpt lat="43.4407" lon="5.75777">
        <ele>738.7</ele>
        <time>2015-04-15T11:39:40Z</time>
      </trkpt>
      <trkpt lat="43.44053" lon="5.75776">
        <ele>738</ele>
        <time>2015-04-15T11:39:55Z</time>
      </trkpt>
      <trkpt lat="43.44035" lon="5.75776">
        <ele>736</ele>
        <time>2015-04-15T11:40:12Z</time>
      </trkpt>
      <trkpt lat="43.44034" lon="5.75776">
        <ele>736</ele>
        <time>2015-04-15T11:40:13Z</time>
      </trkpt>
      <trkpt lat="43.44" lon="5.75778">
        <ele>733.4</ele>
        <time>2015-04-15T11:40:53Z</time>
      </trkpt>
      <trkpt lat="43.43983" lon="5.75772">
        <ele>726.5</ele>
        <time>2015-04-15T11:48:58Z</time>
      </trkpt>
      <trkpt lat="43.43982" lon="5.75771">
        <ele>726.4</ele>
        <time>2015-04-15T11:48:59Z</time>
      </trkpt>
      <trkpt lat="43.43997" lon="5.7573">
        <ele>716.4</ele>
        <time>2015-04-15T11:49:39Z</time>
      </trkpt>
      <trkpt lat="43.44011" lon="5.75715">
        <ele>713.2</ele>
        <time>2015-04-15T11:50:03Z</time>
      </trkpt>
      <trkpt lat="43.44012" lon="5.75714">
        <ele>713.2</ele>
        <time>2015-04-15T11:50:04Z</time>
      </trkpt>
      <trkpt lat="43.44042" lon="5.75693">
        <ele>707.5</ele>
        <time>2015-04-15T11:50:45Z</time>
      </trkpt>
      <trkpt lat="43.44059" lon="5.75683">
        <ele>704.7</ele>
        <time>2015-04-15T11:51:05Z</time>
      </trkpt>
      <trkpt lat="43.44059" lon="5.75683">
        <ele>704.7</ele>
        <time>2015-04-15T11:51:06Z</time>
      </trkpt>
      <trkpt lat="43.44089" lon="5.75658">
        <ele>699.9</ele>
        <time>2015-04-15T11:51:49Z</time>
      </trkpt>
      <trkpt lat="43.44107" lon="5.75653">
        <ele>702.4</ele>
        <time>2015-04-15T11:52:10Z</time>
      </trkpt>
      <trkpt lat="43.44107" lon="5.75653">
        <ele>702</ele>
        <time>2015-04-15T11:52:11Z</time>
      </trkpt>
      <trkpt lat="43.4414" lon="5.75668">
        <ele>698</ele>
        <time>2015-04-15T11:52:47Z</time>
      </trkpt>
      <trkpt lat="43.44156" lon="5.75678">
        <ele>693.2</ele>
        <time>2015-04-15T11:53:07Z</time>
      </trkpt>
      <trkpt lat="43.44174" lon="5.7568">
        <ele>693</ele>
        <time>2015-04-15T11:53:25Z</time>
      </trkpt>
      <trkpt lat="43.44174" lon="5.75679">
        <ele>693</ele>
        <time>2015-04-15T11:53:26Z</time>
      </trkpt>
      <trkpt lat="43.44204" lon="5.75657">
        <ele>692.5</ele>
        <time>2015-04-15T11:53:57Z</time>
      </trkpt>
      <trkpt lat="43.4422" lon="5.75646">
        <ele>689.5</ele>
        <time>2015-04-15T11:54:15Z</time>
      </trkpt>
      <trkpt lat="43.44236" lon="5.75654">
        <ele>688.2</ele>
        <time>2015-04-15T11:54:32Z</time>
      </trkpt>
      <trkpt lat="43.44237" lon="5.75655">
        <ele>687.9</ele>
        <time>2015-04-15T11:54:33Z</time>
      </trkpt>
      <trkpt lat="43.44256" lon="5.75693">
        <ele>678.2</ele>
        <time>2015-04-15T11:55:05Z</time>
      </trkpt>
      <trkpt lat="43.44272" lon="5.75702">
        <ele>681.5</ele>
        <time>2015-04-15T11:55:22Z</time>
      </trkpt>
      <trkpt lat="43.44286" lon="5.75688">
        <ele>678.2</ele>
        <time>2015-04-15T11:55:43Z</time>
      </trkpt>
      <trkpt lat="43.44287" lon="5.75687">
        <ele>678</ele>
        <time>2015-04-15T11:55:44Z</time>
      </trkpt>
      <trkpt lat="43.44319" lon="5.75678">
        <ele>672.5</ele>
        <time>2015-04-15T11:56:16Z</time>
      </trkpt>
      <trkpt lat="43.44336" lon="5.75683">
        <ele>674.7</ele>
        <time>2015-04-15T11:56:32Z</time>
      </trkpt>
      <trkpt lat="43.44353" lon="5.75677">
        <ele>669</ele>
        <time>2015-04-15T11:56:54Z</time>
      </trkpt>
      <trkpt lat="43.44354" lon="5.75676">
        <ele>668.9</ele>
        <time>2015-04-15T11:56:55Z</time>
      </trkpt>
      <trkpt lat="43.4438" lon="5.75649">
        <ele>662.9</ele>
        <time>2015-04-15T11:57:28Z</time>
      </trkpt>
      <trkpt lat="43.44397" lon="5.75646">
        <ele>659.9</ele>
        <time>2015-04-15T11:57:46Z</time>
      </trkpt>
      <trkpt lat="43.44414" lon="5.75652">
        <ele>656.9</ele>
        <time>2015-04-15T11:58:05Z</time>
      </trkpt>
      <trkpt lat="43.44415" lon="5.75653">
        <ele>656.7</ele>
        <time>2015-04-15T11:58:06Z</time>
      </trkpt>
      <trkpt lat="43.44445" lon="5.75674">
        <ele>649.7</ele>
        <time>2015-04-15T11:58:48Z</time>
      </trkpt>
      <trkpt lat="43.44462" lon="5.75677">
        <ele>647.4</ele>
        <time>2015-04-15T11:59:05Z</time>
      </trkpt>
      <trkpt lat="43.44479" lon="5.75671">
        <ele>649</ele>
        <time>2015-04-15T11:59:18Z</time>
      </trkpt>
      <trkpt lat="43.4448" lon="5.75671">
        <ele>649.4</ele>
        <time>2015-04-15T11:59:19Z</time>
      </trkpt>
      <trkpt lat="43.44513" lon="5.75677">
        <ele>637.2</ele>
        <time>2015-04-15T12:00:00Z</time>
      </trkpt>
      <trkpt lat="43.4453" lon="5.75675">
        <ele>639.5</ele>
        <time>2015-04-15T12:00:18Z</time>
      </trkpt>
      <trkpt lat="43.44547" lon="5.75671">
        <ele>636.4</ele>
        <time>2015-04-15T12:00:35Z</time>
      </trkpt>
      <trkpt lat="43.44549" lon="5.7567">
        <ele>636.2</ele>
        <time>2015-04-15T12:00:36Z</time>
      </trkpt>
      <trkpt lat="43.44578" lon="5.75682">
        <ele>601</ele>
        <time>2015-04-15T12:01:10Z</time>
      </trkpt>
      <trkpt lat="43.44592" lon="5.75696">
        <ele>565.5</ele>
        <time>2015-04-15T12:01:25Z</time>
      </trkpt>
      <trkpt lat="43.44603" lon="5.75682">
        <ele>551.2</ele>
        <time>2015-04-15T12:01:32Z</time>
      </trkpt>
      <trkpt lat="43.44614" lon="5.75663">
        <ele>534.4</ele>
        <time>2015-04-15T12:01:40Z</time>
      </trkpt>
      <trkpt lat="43.44615" lon="5.75661">
        <ele>533</ele>
        <time>2015-04-15T12:01:41Z</time>
      </trkpt>
      <trkpt lat="43.44637" lon="5.75636">
        <ele>496.8</ele>
        <time>2015-04-15T12:01:56Z</time>
      </trkpt>
      <trkpt lat="43.44653" lon="5.75625">
        <ele>483.7</ele>
        <time>2015-04-15T12:02:05Z</time>
      </trkpt>
      <trkpt lat="43.4467" lon="5.75621">
        <ele>478.8</ele>
        <time>2015-04-15T12:02:17Z</time>
      </trkpt>
      <trkpt lat="43.44685" lon="5.75619">
        <ele>464.5</ele>
        <time>2015-04-15T12:02:26Z</time>
      </trkpt>
      <trkpt lat="43.44697" lon="5.75602">
        <ele>448.7</ele>
        <time>2015-04-15T12:02:37Z</time>
      </trkpt>
      <trkpt lat="43.44712" lon="5.7559">
        <ele>438.6</ele>
        <time>2015-04-15T12:02:48Z</time>
      </trkpt>
      <trkpt lat="43.44714" lon="5.7559">
        <ele>438.2</ele>
        <time>2015-04-15T12:02:49Z</time>
      </trkpt>
      <trkpt lat="43.44744" lon="5.75571">
        <ele>432.3</ele>
        <time>2015-04-15T12:03:12Z</time>
      </trkpt>
      <trkpt lat="43.44761" lon="5.75564">
        <ele>434</ele>
        <time>2015-04-15T12:03:26Z</time>
      </trkpt>
      <trkpt lat="43.44779" lon="5.75561">
        <ele>429.3</ele>
        <time>2015-04-15T12:03:45Z</time>
      </trkpt>
      <trkpt lat="43.44796" lon="5.7556">
        <ele>432.3</ele>
        <time>2015-04-15T12:04:04Z</time>
      </trkpt>
      <trkpt lat="43.44798" lon="5.75559">
        <ele>432.7</ele>
        <time>2015-04-15T12:04:05Z</time>
      </trkpt>
      <trkpt lat="43.44831" lon="5.75556">
        <ele>438</ele>
        <time>2015-04-15T12:04:32Z</time>
      </trkpt>
      <trkpt lat="43.44848" lon="5.75552">
        <ele>434.7</ele>
        <time>2015-04-15T12:04:48Z</time>
      </trkpt>
      <trkpt lat="43.44864" lon="5.75546">
        <ele>420.7</ele>
        <time>2015-04-15T12:04:55Z</time>
      </trkpt>
      <trkpt lat="43.44881" lon="5.75537">
        <ele>417.2</ele>
        <time>2015-04-15T12:05:09Z</time>
      </trkpt>
      <trkpt lat="43.44882" lon="5.75537">
        <ele>417</ele>
        <time>2015-04-15T12:05:10Z</time>
      </trkpt>
      <trkpt lat="43.44915" lon="5.75545">
        <ele>405.2</ele>
        <time>2015-04-15T12:05:47Z</time>
      </trkpt>
      <trkpt lat="43.4493" lon="5.75557">
        <ele>401.1</ele>
        <time>2015-04-15T12:06:00Z</time>
      </trkpt>
      <trkpt lat="43.44946" lon="5.75571">
        <ele>399.2</ele>
        <time>2015-04-15T12:06:09Z</time>
      </trkpt>
      <trkpt lat="43.44942" lon="5.75568">
        <ele>399.8</ele>
        <time>2015-04-15T12:06:11Z</time>
      </trkpt>
      <trkpt lat="43.44973" lon="5.75599">
        <ele>422</ele>
        <time>2015-04-15T12:06:38Z</time>
      </trkpt>
      <trkpt lat="43.44985" lon="5.75615">
        <ele>447.6</ele>
        <time>2015-04-15T12:06:56Z</time>
      </trkpt>
      <trkpt lat="43.44995" lon="5.75634">
        <ele>491.2</ele>
        <time>2015-04-15T12:07:13Z</time>
      </trkpt>
      <trkpt lat="43.44996" lon="5.75635">
        <ele>494.2</ele>
        <time>2015-04-15T12:07:14Z</time>
      </trkpt>
      <trkpt lat="43.44994" lon="5.7568">
        <ele>549</ele>
        <time>2015-04-15T12:07:39Z</time>
      </trkpt>
      <trkpt lat="43.4499" lon="5.75702">
        <ele>562.4</ele>
        <time>2015-04-15T12:07:50Z</time>
      </trkpt>
      <trkpt lat="43.44988" lon="5.75726">
        <ele>576.5</ele>
        <time>2015-04-15T12:08:00Z</time>
      </trkpt>
      <trkpt lat="43.44991" lon="5.7575">
        <ele>587.2</ele>
        <time>2015-04-15T12:08:12Z</time>
      </trkpt>
      <trkpt lat="43.45002" lon="5.75768">
        <ele>597.2</ele>
        <time>2015-04-15T12:08:27Z</time>
      </trkpt>
      <trkpt lat="43.45002" lon="5.75769">
        <ele>597.2</ele>
        <time>2015-04-15T12:08:28Z</time>
      </trkpt>
      <trkpt lat="43.45024" lon="5.75803">
        <ele>609</ele>
        <time>2015-04-15T12:09:02Z</time>
      </trkpt>
      <trkpt lat="43.45032" lon="5.75824">
        <ele>607.7</ele>
        <time>2015-04-15T12:09:17Z</time>
      </trkpt>
      <trkpt lat="43.45033" lon="5.75849">
        <ele>607.5</ele>
        <time>2015-04-15T12:09:32Z</time>
      </trkpt>
      <trkpt lat="43.45033" lon="5.75851">
        <ele>607.2</ele>
        <time>2015-04-15T12:09:33Z</time>
      </trkpt>
      <trkpt lat="43.45043" lon="5.7589">
        <ele>611.7</ele>
        <time>2015-04-15T12:10:01Z</time>
      </trkpt>
      <trkpt lat="43.45057" lon="5.75905">
        <ele>615.5</ele>
        <time>2015-04-15T12:10:14Z</time>
      </trkpt>
      <trkpt lat="43.45071" lon="5.75918">
        <ele>608.2</ele>
        <time>2015-04-15T12:16:25Z</time>
      </trkpt>
      <trkpt lat="43.45072" lon="5.75918">
        <ele>608.2</ele>
        <time>2015-04-15T12:16:26Z</time>
      </trkpt>
      <trkpt lat="43.45104" lon="5.7593">
        <ele>606.2</ele>
        <time>2015-04-15T12:17:04Z</time>
      </trkpt>
      <trkpt lat="43.45118" lon="5.75946">
        <ele>607.9</ele>
        <time>2015-04-15T12:17:19Z</time>
      </trkpt>
      <trkpt lat="43.45129" lon="5.75963">
        <ele>606.9</ele>
        <time>2015-04-15T12:17:35Z</time>
      </trkpt>
      <trkpt lat="43.4513" lon="5.75964">
        <ele>606.5</ele>
        <time>2015-04-15T12:17:36Z</time>
      </trkpt>
      <trkpt lat="43.45163" lon="5.75979">
        <ele>612</ele>
        <time>2015-04-15T12:21:10Z</time>
      </trkpt>
      <trkpt lat="43.45163" lon="5.75979">
        <ele>612</ele>
        <time>2015-04-15T12:21:11Z</time>
      </trkpt>
      <trkpt lat="43.45168" lon="5.76004">
        <ele>606</ele>
        <time>2015-04-15T12:22:13Z</time>
      </trkpt>
      <trkpt lat="43.4517" lon="5.76051">
        <ele>597.7</ele>
        <time>2015-04-15T12:22:49Z</time>
      </trkpt>
      <trkpt lat="43.45172" lon="5.76075">
        <ele>598.5</ele>
        <time>2015-04-15T12:23:07Z</time>
      </trkpt>
      <trkpt lat="43.45178" lon="5.76097">
        <ele>594.5</ele>
        <time>2015-04-15T12:23:22Z</time>
      </trkpt>
      <trkpt lat="43.45179" lon="5.76098">
        <ele>596</ele>
        <time>2015-04-15T12:23:23Z</time>
      </trkpt>
      <trkpt lat="43.45197" lon="5.76136">
        <ele>588</ele>
        <time>2015-04-15T12:23:54Z</time>
      </trkpt>
      <trkpt lat="43.45208" lon="5.76155">
        <ele>592.5</ele>
        <time>2015-04-15T12:24:10Z</time>
      </trkpt>
      <trkpt lat="43.45214" lon="5.76177">
        <ele>585.5</ele>
        <time>2015-04-15T12:24:27Z</time>
      </trkpt>
      <trkpt lat="43.45214" lon="5.76179">
        <ele>585.5</ele>
        <time>2015-04-15T12:24:28Z</time>
      </trkpt>
      <trkpt lat="43.45244" lon="5.76193">
        <ele>610.9</ele>
        <time>2015-04-15T12:24:51Z</time>
      </trkpt>
      <trkpt lat="43.45259" lon="5.76206">
        <ele>610.7</ele>
        <time>2015-04-15T12:25:10Z</time>
      </trkpt>
      <trkpt lat="43.45275" lon="5.76217">
        <ele>607.2</ele>
        <time>2015-04-15T12:25:31Z</time>
      </trkpt>
      <trkpt lat="43.45275" lon="5.76218">
        <ele>605.9</ele>
        <time>2015-04-15T12:25:32Z</time>
      </trkpt>
      <trkpt lat="43.45285" lon="5.76264">
        <ele>594.7</ele>
        <time>2015-04-15T12:26:05Z</time>
      </trkpt>
      <trkpt lat="43.45291" lon="5.76286">
        <ele>597.5</ele>
        <time>2015-04-15T12:26:20Z</time>
      </trkpt>
      <trkpt lat="43.45308" lon="5.76296">
        <ele>606.9</ele>
        <time>2015-04-15T12:26:39Z</time>
      </trkpt>
      <trkpt lat="43.45308" lon="5.76297">
        <ele>606.5</ele>
        <time>2015-04-15T12:26:40Z</time>
      </trkpt>
      <trkpt lat="43.45326" lon="5.76338">
        <ele>593.2</ele>
        <time>2015-04-15T12:27:16Z</time>
      </trkpt>
      <trkpt lat="43.45336" lon="5.76358">
        <ele>591.2</ele>
        <time>2015-04-15T12:27:31Z</time>
      </trkpt>
      <trkpt lat="43.45346" lon="5.76377">
        <ele>592.5</ele>
        <time>2015-04-15T12:27:46Z</time>
      </trkpt>
      <trkpt lat="43.45347" lon="5.76378">
        <ele>592.2</ele>
        <time>2015-04-15T12:27:47Z</time>
      </trkpt>
      <trkpt lat="43.45369" lon="5.76412">
        <ele>593.5</ele>
        <time>2015-04-15T12:28:14Z</time>
      </trkpt>
      <trkpt lat="43.45385" lon="5.76423">
        <ele>593</ele>
        <time>2015-04-15T12:28:32Z</time>
      </trkpt>
      <trkpt lat="43.45378" lon="5.76401">
        <ele>590</ele>
        <time>2015-04-15T12:30:26Z</time>
      </trkpt>
      <trkpt lat="43.45378" lon="5.764">
        <ele>590</ele>
        <time>2015-04-15T12:30:27Z</time>
      </trkpt>
      <trkpt lat="43.45372" lon="5.76354">
        <ele>585.9</ele>
        <time>2015-04-15T12:31:10Z</time>
      </trkpt>
      <trkpt lat="43.45373" lon="5.7633">
        <ele>574.9</ele>
        <time>2015-04-15T12:31:28Z</time>
      </trkpt>
      <trkpt lat="43.45372" lon="5.76328">
        <ele>574.4</ele>
        <time>2015-04-15T12:31:29Z</time>
      </trkpt>
      <trkpt lat="43.45371" lon="5.76281">
        <ele>564</ele>
        <time>2015-04-15T12:32:01Z</time>
      </trkpt>
      <trkpt lat="43.45388" lon="5.76275">
        <ele>549</ele>
        <time>2015-04-15T12:32:29Z</time>
      </trkpt>
      <trkpt lat="43.45389" lon="5.76275">
        <ele>548.7</ele>
        <time>2015-04-15T12:32:30Z</time>
      </trkpt>
      <trkpt lat="43.45403" lon="5.76243">
        <ele>550.5</ele>
        <time>2015-04-15T12:33:02Z</time>
      </trkpt>
      <trkpt lat="43.45416" lon="5.76226">
        <ele>538.7</ele>
        <time>2015-04-15T12:33:28Z</time>
      </trkpt>
      <trkpt lat="43.4543" lon="5.76211">
        <ele>538.4</ele>
        <time>2015-04-15T12:33:47Z</time>
      </trkpt>
      <trkpt lat="43.4543" lon="5.76212">
        <ele>536.7</ele>
        <time>2015-04-15T12:33:48Z</time>
      </trkpt>
      <trkpt lat="43.45452" lon="5.76177">
        <ele>524.4</ele>
        <time>2015-04-15T12:34:31Z</time>
      </trkpt>
      <trkpt lat="43.45462" lon="5.76157">
        <ele>516</ele>
        <time>2015-04-15T12:34:54Z</time>
      </trkpt>
      <trkpt lat="43.45462" lon="5.76156">
        <ele>516</ele>
        <time>2015-04-15T12:34:55Z</time>
      </trkpt>
      <trkpt lat="43.45467" lon="5.7611">
        <ele>505.2</ele>
        <time>2015-04-15T12:35:26Z</time>
      </trkpt>
      <trkpt lat="43.45469" lon="5.76087">
        <ele>499.6</ele>
        <time>2015-04-15T12:35:40Z</time>
      </trkpt>
      <trkpt lat="43.45469" lon="5.76063">
        <ele>497.2</ele>
        <time>2015-04-15T12:35:55Z</time>
      </trkpt>
      <trkpt lat="43.45469" lon="5.76062">
        <ele>497.3</ele>
        <time>2015-04-15T12:35:56Z</time>
      </trkpt>
      <trkpt lat="43.4549" lon="5.76026">
        <ele>489.6</ele>
        <time>2015-04-15T12:36:30Z</time>
      </trkpt>
      <trkpt lat="43.45502" lon="5.76008">
        <ele>483.8</ele>
        <time>2015-04-15T12:36:51Z</time>
      </trkpt>
      <trkpt lat="43.45518" lon="5.75998">
        <ele>472.7</ele>
        <time>2015-04-15T12:37:14Z</time>
      </trkpt>
      <trkpt lat="43.45519" lon="5.75997">
        <ele>474.2</ele>
        <time>2015-04-15T12:37:15Z</time>
      </trkpt>
      <trkpt lat="43.4554" lon="5.75963">
        <ele>471.1</ele>
        <time>2015-04-15T12:37:39Z</time>
      </trkpt>
      <trkpt lat="43.4555" lon="5.75944">
        <ele>468.8</ele>
        <time>2015-04-15T12:37:54Z</time>
      </trkpt>
      <trkpt lat="43.45567" lon="5.75947">
        <ele>461.7</ele>
        <time>2015-04-15T12:38:12Z</time>
      </trkpt>
      <trkpt lat="43.45578" lon="5.75929">
        <ele>454</ele>
        <time>2015-04-15T12:38:28Z</time>
      </trkpt>
      <trkpt lat="43.45579" lon="5.75928">
        <ele>453.8</ele>
        <time>2015-04-15T12:38:29Z</time>
      </trkpt>
      <trkpt lat="43.45603" lon="5.75893">
        <ele>445.1</ele>
        <time>2015-04-15T12:39:02Z</time>
      </trkpt>
      <trkpt lat="43.4562" lon="5.75897">
        <ele>442.1</ele>
        <time>2015-04-15T12:39:28Z</time>
      </trkpt>
      <trkpt lat="43.45629" lon="5.75918">
        <ele>440.7</ele>
        <time>2015-04-15T12:39:52Z</time>
      </trkpt>
      <trkpt lat="43.45629" lon="5.75919">
        <ele>440.6</ele>
        <time>2015-04-15T12:39:53Z</time>
      </trkpt>
      <trkpt lat="43.45647" lon="5.75914">
        <ele>445.7</ele>
        <time>2015-04-15T12:41:10Z</time>
      </trkpt>
      <trkpt lat="43.45661" lon="5.75899">
        <ele>423.6</ele>
        <time>2015-04-15T12:49:13Z</time>
      </trkpt>
      <trkpt lat="43.45694" lon="5.75887">
        <ele>421.7</ele>
        <time>2015-04-15T12:49:44Z</time>
      </trkpt>
      <trkpt lat="43.45711" lon="5.75879">
        <ele>420.3</ele>
        <time>2015-04-15T12:50:01Z</time>
      </trkpt>
      <trkpt lat="43.45728" lon="5.75869">
        <ele>425.5</ele>
        <time>2015-04-15T12:50:20Z</time>
      </trkpt>
      <trkpt lat="43.45728" lon="5.75868">
        <ele>425</ele>
        <time>2015-04-15T12:50:21Z</time>
      </trkpt>
      <trkpt lat="43.45738" lon="5.75839">
        <ele>428.1</ele>
        <time>2015-04-15T12:51:38Z</time>
      </trkpt>
      <trkpt lat="43.45737" lon="5.75838">
        <ele>428.2</ele>
        <time>2015-04-15T12:51:39Z</time>
      </trkpt>
      <trkpt lat="43.45706" lon="5.75818">
        <ele>428.7</ele>
        <time>2015-04-15T12:52:09Z</time>
      </trkpt>
      <trkpt lat="43.4569" lon="5.75808">
        <ele>427.5</ele>
        <time>2015-04-15T12:52:24Z</time>
      </trkpt>
      <trkpt lat="43.4568" lon="5.75789">
        <ele>428</ele>
        <time>2015-04-15T12:52:39Z</time>
      </trkpt>
      <trkpt lat="43.45679" lon="5.75787">
        <ele>428.2</ele>
        <time>2015-04-15T12:52:40Z</time>
      </trkpt>
      <trkpt lat="43.45679" lon="5.75741">
        <ele>425</ele>
        <time>2015-04-15T12:53:13Z</time>
      </trkpt>
      <trkpt lat="43.45682" lon="5.75717">
        <ele>422.3</ele>
        <time>2015-04-15T12:53:30Z</time>
      </trkpt>
      <trkpt lat="43.45686" lon="5.75694">
        <ele>418.2</ele>
        <time>2015-04-15T12:53:46Z</time>
      </trkpt>
      <trkpt lat="43.45686" lon="5.75692">
        <ele>418.3</ele>
        <time>2015-04-15T12:53:47Z</time>
      </trkpt>
      <trkpt lat="43.45698" lon="5.75648">
        <ele>413.2</ele>
        <time>2015-04-15T12:54:20Z</time>
      </trkpt>
      <trkpt lat="43.45699" lon="5.75624">
        <ele>409.8</ele>
        <time>2015-04-15T12:54:36Z</time>
      </trkpt>
      <trkpt lat="43.45699" lon="5.756">
        <ele>408.6</ele>
        <time>2015-04-15T12:54:50Z</time>
      </trkpt>
      <trkpt lat="43.45699" lon="5.75599">
        <ele>408.6</ele>
        <time>2015-04-15T12:54:51Z</time>
      </trkpt>
      <trkpt lat="43.45706" lon="5.75553">
        <ele>406.2</ele>
        <time>2015-04-15T12:56:21Z</time>
      </trkpt>
      <trkpt lat="43.45707" lon="5.75553">
        <ele>406.6</ele>
        <time>2015-04-15T12:56:22Z</time>
      </trkpt>
      <trkpt lat="43.45713" lon="5.75506">
        <ele>403.2</ele>
        <time>2015-04-15T12:57:08Z</time>
      </trkpt>
      <trkpt lat="43.45719" lon="5.75483">
        <ele>399.2</ele>
        <time>2015-04-15T12:57:29Z</time>
      </trkpt>
      <trkpt lat="43.45719" lon="5.75482">
        <ele>398.5</ele>
        <time>2015-04-15T12:57:30Z</time>
      </trkpt>
      <trkpt lat="43.45736" lon="5.75441">
        <ele>394.5</ele>
        <time>2015-04-15T12:58:06Z</time>
      </trkpt>
      <trkpt lat="43.45743" lon="5.75419">
        <ele>393.1</ele>
        <time>2015-04-15T12:58:25Z</time>
      </trkpt>
      <trkpt lat="43.45734" lon="5.75399">
        <ele>389.7</ele>
        <time>2015-04-15T12:58:44Z</time>
      </trkpt>
      <trkpt lat="43.45733" lon="5.75398">
        <ele>389.7</ele>
        <time>2015-04-15T12:58:45Z</time>
      </trkpt>
      <trkpt lat="43.45699" lon="5.75395">
        <ele>388</ele>
        <time>2015-04-15T12:59:18Z</time>
      </trkpt>
      <trkpt lat="43.45691" lon="5.75373">
        <ele>393.6</ele>
        <time>2015-04-15T12:59:39Z</time>
      </trkpt>
      <trkpt lat="43.45699" lon="5.75352">
        <ele>393.5</ele>
        <time>2015-04-15T12:59:57Z</time>
      </trkpt>
      <trkpt lat="43.457" lon="5.75351">
        <ele>393.6</ele>
        <time>2015-04-15T12:59:58Z</time>
      </trkpt>
      <trkpt lat="43.45718" lon="5.75313">
        <ele>388.5</ele>
        <time>2015-04-15T13:00:55Z</time>
      </trkpt>
      <trkpt lat="43.45728" lon="5.75293">
        <ele>384.5</ele>
        <time>2015-04-15T13:01:15Z</time>
      </trkpt>
      <trkpt lat="43.45729" lon="5.75292">
        <ele>384.7</ele>
        <time>2015-04-15T13:01:16Z</time>
      </trkpt>
      <trkpt lat="43.45736" lon="5.75246">
        <ele>380.8</ele>
        <time>2015-04-15T13:04:10Z</time>
      </trkpt>
      <trkpt lat="43.45736" lon="5.75244">
        <ele>380.7</ele>
        <time>2015-04-15T13:04:11Z</time>
      </trkpt>
      <trkpt lat="43.4574" lon="5.75199">
        <ele>379.7</ele>
        <time>2015-04-15T13:04:41Z</time>
      </trkpt>
      <trkpt lat="43.45749" lon="5.75178">
        <ele>379</ele>
        <time>2015-04-15T13:04:56Z</time>
      </trkpt>
      <trkpt lat="43.45763" lon="5.75163">
        <ele>374.2</ele>
        <time>2015-04-15T13:05:15Z</time>
      </trkpt>
      <trkpt lat="43.45764" lon="5.75163">
        <ele>373.6</ele>
        <time>2015-04-15T13:05:16Z</time>
      </trkpt>
      <trkpt lat="43.45793" lon="5.7514">
        <ele>370.2</ele>
        <time>2015-04-15T13:05:43Z</time>
      </trkpt>
      <trkpt lat="43.45808" lon="5.75129">
        <ele>372.7</ele>
        <time>2015-04-15T13:05:56Z</time>
      </trkpt>
      <trkpt lat="43.45822" lon="5.75116">
        <ele>372.3</ele>
        <time>2015-04-15T13:06:13Z</time>
      </trkpt>
      <trkpt lat="43.45833" lon="5.75096">
        <ele>373.6</ele>
        <time>2015-04-15T13:06:28Z</time>
      </trkpt>
      <trkpt lat="43.45834" lon="5.75095">
        <ele>373.2</ele>
        <time>2015-04-15T13:06:29Z</time>
      </trkpt>
      <trkpt lat="43.4586" lon="5.75069">
        <ele>371.2</ele>
        <time>2015-04-15T13:06:57Z</time>
      </trkpt>
      <trkpt lat="43.45876" lon="5.75062">
        <ele>367.2</ele>
        <time>2015-04-15T13:07:12Z</time>
      </trkpt>
      <trkpt lat="43.45893" lon="5.75055">
        <ele>368.8</ele>
        <time>2015-04-15T13:07:27Z</time>
      </trkpt>
      <trkpt lat="43.45909" lon="5.75045">
        <ele>371.1</ele>
        <time>2015-04-15T13:07:41Z</time>
      </trkpt>
      <trkpt lat="43.4591" lon="5.75045">
        <ele>371.2</ele>
        <time>2015-04-15T13:07:42Z</time>
      </trkpt>
      <trkpt lat="43.4594" lon="5.75022">
        <ele>374</ele>
        <time>2015-04-15T13:08:10Z</time>
      </trkpt>
      <trkpt lat="43.45955" lon="5.7501">
        <ele>370.8</ele>
        <time>2015-04-15T13:08:24Z</time>
      </trkpt>
      <trkpt lat="43.4597" lon="5.75">
        <ele>364.1</ele>
        <time>2015-04-15T13:08:38Z</time>
      </trkpt>
      <trkpt lat="43.45987" lon="5.74991">
        <ele>358</ele>
        <time>2015-04-15T13:08:55Z</time>
      </trkpt>
      <trkpt lat="43.45988" lon="5.74991">
        <ele>357.3</ele>
        <time>2015-04-15T13:08:56Z</time>
      </trkpt>
      <trkpt lat="43.46011" lon="5.74957">
        <ele>351.7</ele>
        <time>2015-04-15T13:09:24Z</time>
      </trkpt>
      <trkpt lat="43.46024" lon="5.7494">
        <ele>350.2</ele>
        <time>2015-04-15T13:09:38Z</time>
      </trkpt>
      <trkpt lat="43.46038" lon="5.74924">
        <ele>353.5</ele>
        <time>2015-04-15T13:09:52Z</time>
      </trkpt>
      <trkpt lat="43.46049" lon="5.74907">
        <ele>350.7</ele>
        <time>2015-04-15T13:10:06Z</time>
      </trkpt>
      <trkpt lat="43.4605" lon="5.74906">
        <ele>350.6</ele>
        <time>2015-04-15T13:10:07Z</time>
      </trkpt>
      <trkpt lat="43.46074" lon="5.74875">
        <ele>346.7</ele>
        <time>2015-04-15T13:10:34Z</time>
      </trkpt>
      <trkpt lat="43.46083" lon="5.74853">
        <ele>343.2</ele>
        <time>2015-04-15T13:10:50Z</time>
      </trkpt>
      <trkpt lat="43.46093" lon="5.74834">
        <ele>341.7</ele>
        <time>2015-04-15T13:11:05Z</time>
      </trkpt>
      <trkpt lat="43.46106" lon="5.74821">
        <ele>338.8</ele>
        <time>2015-04-15T13:11:18Z</time>
      </trkpt>
      <trkpt lat="43.46108" lon="5.74819">
        <ele>339.5</ele>
        <time>2015-04-15T13:11:19Z</time>
      </trkpt>
      <trkpt lat="43.46135" lon="5.74793">
        <ele>331.2</ele>
        <time>2015-04-15T13:11:50Z</time>
      </trkpt>
      <trkpt lat="43.46152" lon="5.7479">
        <ele>336.6</ele>
        <time>2015-04-15T13:12:11Z</time>
      </trkpt>
      <trkpt lat="43.46169" lon="5.74791">
        <ele>334.3</ele>
        <time>2015-04-15T13:14:18Z</time>
      </trkpt>
      <trkpt lat="43.4617" lon="5.74791">
        <ele>334.3</ele>
        <time>2015-04-15T13:14:19Z</time>
      </trkpt>
      <trkpt lat="43.46202" lon="5.74775">
        <ele>334.5</ele>
        <time>2015-04-15T13:14:43Z</time>
      </trkpt>
      <trkpt lat="43.46218" lon="5.74765">
        <ele>331.6</ele>
        <time>2015-04-15T13:14:57Z</time>
      </trkpt>
      <trkpt lat="43.46235" lon="5.74759">
        <ele>331.3</ele>
        <time>2015-04-15T13:15:12Z</time>
      </trkpt>
      <trkpt lat="43.46251" lon="5.74752">
        <ele>332.1</ele>
        <time>2015-04-15T13:15:26Z</time>
      </trkpt>
      <trkpt lat="43.46252" lon="5.74752">
        <ele>332.1</ele>
        <time>2015-04-15T13:15:27Z</time>
      </trkpt>
      <trkpt lat="43.46284" lon="5.74737">
        <ele>332.2</ele>
        <time>2015-04-15T13:16:00Z</time>
      </trkpt>
      <trkpt lat="43.46301" lon="5.74731">
        <ele>331.2</ele>
        <time>2015-04-15T13:16:15Z</time>
      </trkpt>
      <trkpt lat="43.46318" lon="5.74725">
        <ele>331.1</ele>
        <time>2015-04-15T13:16:29Z</time>
      </trkpt>
      <trkpt lat="43.46319" lon="5.74725">
        <ele>331.5</ele>
        <time>2015-04-15T13:16:30Z</time>
      </trkpt>
      <trkpt lat="43.46352" lon="5.74717">
        <ele>326.7</ele>
        <time>2015-04-15T13:16:58Z</time>
      </trkpt>
      <trkpt lat="43.46369" lon="5.74712">
        <ele>330.2</ele>
        <time>2015-04-15T13:17:12Z</time>
      </trkpt>
      <trkpt lat="43.46386" lon="5.74705">
        <ele>329.8</ele>
        <time>2015-04-15T13:17:27Z</time>
      </trkpt>
      <trkpt lat="43.46402" lon="5.74699">
        <ele>329.8</ele>
        <time>2015-04-15T13:17:40Z</time>
      </trkpt>
      <trkpt lat="43.46403" lon="5.74698">
        <ele>329.6</ele>
        <time>2015-04-15T13:17:41Z</time>
      </trkpt>
      <trkpt lat="43.46435" lon="5.74681">
        <ele>328.2</ele>
        <time>2015-04-15T13:18:09Z</time>
      </trkpt>
      <trkpt lat="43.46451" lon="5.74673">
        <ele>325.1</ele>
        <time>2015-04-15T13:18:24Z</time>
      </trkpt>
      <trkpt lat="43.46467" lon="5.74667">
        <ele>323.8</ele>
        <time>2015-04-15T13:18:40Z</time>
      </trkpt>
      <trkpt lat="43.46485" lon="5.74661">
        <ele>323.6</ele>
        <time>2015-04-15T13:18:53Z</time>
      </trkpt>
      <trkpt lat="43.46485" lon="5.74661">
        <ele>323.5</ele>
        <time>2015-04-15T13:18:54Z</time>
      </trkpt>
      <trkpt lat="43.46519" lon="5.74649">
        <ele>318.6</ele>
        <time>2015-04-15T13:19:24Z</time>
      </trkpt>
      <trkpt lat="43.46536" lon="5.74641">
        <ele>317.3</ele>
        <time>2015-04-15T13:19:38Z</time>
      </trkpt>
      <trkpt lat="43.46552" lon="5.74635">
        <ele>315.6</ele>
        <time>2015-04-15T13:19:52Z</time>
      </trkpt>
      <trkpt lat="43.46569" lon="5.74629">
        <ele>314.6</ele>
        <time>2015-04-15T13:20:06Z</time>
      </trkpt>
      <trkpt lat="43.46571" lon="5.74628">
        <ele>314.5</ele>
        <time>2015-04-15T13:20:07Z</time>
      </trkpt>
      <trkpt lat="43.46602" lon="5.74617">
        <ele>312.1</ele>
        <time>2015-04-15T13:20:33Z</time>
      </trkpt>
      <trkpt lat="43.46619" lon="5.74609">
        <ele>309.6</ele>
        <time>2015-04-15T13:20:49Z</time>
      </trkpt>
      <trkpt lat="43.46636" lon="5.74603">
        <ele>313.2</ele>
        <time>2015-04-15T13:21:04Z</time>
      </trkpt>
      <trkpt lat="43.46653" lon="5.74599">
        <ele>315.7</ele>
        <time>2015-04-15T13:21:19Z</time>
      </trkpt>
      <trkpt lat="43.46654" lon="5.74599">
        <ele>315.6</ele>
        <time>2015-04-15T13:21:20Z</time>
      </trkpt>
      <trkpt lat="43.46688" lon="5.746">
        <ele>303.2</ele>
        <time>2015-04-15T13:21:51Z</time>
      </trkpt>
      <trkpt lat="43.46701" lon="5.74584">
        <ele>296.2</ele>
        <time>2015-04-15T13:22:05Z</time>
      </trkpt>
      <trkpt lat="43.46708" lon="5.74561">
        <ele>293.1</ele>
        <time>2015-04-15T13:22:20Z</time>
      </trkpt>
      <trkpt lat="43.46708" lon="5.74559">
        <ele>293.1</ele>
        <time>2015-04-15T13:22:21Z</time>
      </trkpt>
    </trkseg>
  </trk>
</gpx>